sensor_id;sensor_type;location;lat;lon;timestamp;P1;durP1;ratioP1;P2;durP2;ratioP2
40256;SDS011;25977;45.462;9.210;2024-02-14T00:01:52;19.52;;;10.38;;
40256;SDS011;25977;45.462;9.210;2024-02-14T00:04:18;17.83;;;9.40;;
40256;SDS011;25977;45.462;9.210;2024-02-14T00:06:44;21.27;;;9.75;;
40256;SDS011;25977;45.462;9.210;2024-02-14T00:09:10;14.77;;;9.57;;
40256;SDS011;25977;45.462;9.210;2024-02-14T00:11:36;15.52;;;9.88;;
40256;SDS011;25977;45.462;9.210;2024-02-14T00:14:02;14.73;;;9.52;;
40256;SDS011;25977;45.462;9.210;2024-02-14T00:16:29;18.65;;;9.98;;
40256;SDS011;25977;45.462;9.210;2024-02-14T00:18:57;20.05;;;10.10;;
40256;SDS011;25977;45.462;9.210;2024-02-14T00:21:23;13.02;;;9.15;;
40256;SDS011;25977;45.462;9.210;2024-02-14T00:23:50;14.60;;;9.13;;
40256;SDS011;25977;45.462;9.210;2024-02-14T00:26:16;15.63;;;10.27;;
40256;SDS011;25977;45.462;9.210;2024-02-14T00:28:42;15.05;;;9.60;;
40256;SDS011;25977;45.462;9.210;2024-02-14T00:31:07;14.02;;;9.15;;
40256;SDS011;25977;45.462;9.210;2024-02-14T00:33:33;20.85;;;10.07;;
40256;SDS011;25977;45.462;9.210;2024-02-14T00:35:58;13.10;;;8.73;;
40256;SDS011;25977;45.462;9.210;2024-02-14T00:38:24;14.00;;;9.27;;
40256;SDS011;25977;45.462;9.210;2024-02-14T00:40:50;12.98;;;7.90;;
40256;SDS011;25977;45.462;9.210;2024-02-14T00:43:15;18.88;;;8.93;;
40256;SDS011;25977;45.462;9.210;2024-02-14T00:45:41;15.23;;;8.50;;
40256;SDS011;25977;45.462;9.210;2024-02-14T00:48:07;15.40;;;9.85;;
40256;SDS011;25977;45.462;9.210;2024-02-14T00:50:33;15.43;;;9.35;;
40256;SDS011;25977;45.462;9.210;2024-02-14T00:52:59;14.18;;;8.57;;
40256;SDS011;25977;45.462;9.210;2024-02-14T00:55:25;20.33;;;8.68;;
40256;SDS011;25977;45.462;9.210;2024-02-14T00:57:51;15.73;;;9.43;;
40256;SDS011;25977;45.462;9.210;2024-02-14T01:00:17;14.55;;;8.85;;
40256;SDS011;25977;45.462;9.210;2024-02-14T01:02:43;15.68;;;8.60;;
40256;SDS011;25977;45.462;9.210;2024-02-14T01:05:09;16.80;;;9.93;;
40256;SDS011;25977;45.462;9.210;2024-02-14T01:07:35;11.98;;;8.45;;
40256;SDS011;25977;45.462;9.210;2024-02-14T01:10:01;16.13;;;8.73;;
40256;SDS011;25977;45.462;9.210;2024-02-14T01:12:28;20.17;;;7.75;;
40256;SDS011;25977;45.462;9.210;2024-02-14T01:14:56;13.30;;;8.20;;
40256;SDS011;25977;45.462;9.210;2024-02-14T01:17:23;23.95;;;8.60;;
40256;SDS011;25977;45.462;9.210;2024-02-14T01:19:49;12.77;;;7.80;;
40256;SDS011;25977;45.462;9.210;2024-02-14T01:22:15;16.27;;;8.75;;
40256;SDS011;25977;45.462;9.210;2024-02-14T01:24:42;12.05;;;8.55;;
40256;SDS011;25977;45.462;9.210;2024-02-14T01:27:08;12.77;;;8.32;;
40256;SDS011;25977;45.462;9.210;2024-02-14T01:29:34;15.20;;;9.52;;
40256;SDS011;25977;45.462;9.210;2024-02-14T01:32:00;13.70;;;8.32;;
40256;SDS011;25977;45.462;9.210;2024-02-14T01:34:25;11.82;;;8.93;;
40256;SDS011;25977;45.462;9.210;2024-02-14T01:36:53;12.68;;;7.90;;
40256;SDS011;25977;45.462;9.210;2024-02-14T01:39:20;15.68;;;9.20;;
40256;SDS011;25977;45.462;9.210;2024-02-14T01:41:47;13.70;;;9.07;;
40256;SDS011;25977;45.462;9.210;2024-02-14T01:44:14;12.27;;;9.20;;
40256;SDS011;25977;45.462;9.210;2024-02-14T01:46:41;12.00;;;7.55;;
40256;SDS011;25977;45.462;9.210;2024-02-14T01:49:08;19.77;;;10.02;;
40256;SDS011;25977;45.462;9.210;2024-02-14T01:51:37;12.25;;;7.07;;
40256;SDS011;25977;45.462;9.210;2024-02-14T01:54:04;12.70;;;7.70;;
40256;SDS011;25977;45.462;9.210;2024-02-14T01:56:31;12.68;;;7.55;;
40256;SDS011;25977;45.462;9.210;2024-02-14T01:58:58;13.25;;;8.32;;
40256;SDS011;25977;45.462;9.210;2024-02-14T02:01:25;9.95;;;6.65;;
40256;SDS011;25977;45.462;9.210;2024-02-14T02:03:51;10.48;;;7.20;;
40256;SDS011;25977;45.462;9.210;2024-02-14T02:06:18;12.02;;;7.55;;
40256;SDS011;25977;45.462;9.210;2024-02-14T02:08:45;16.08;;;7.55;;
40256;SDS011;25977;45.462;9.210;2024-02-14T02:11:11;15.15;;;7.72;;
40256;SDS011;25977;45.462;9.210;2024-02-14T02:13:36;11.43;;;7.65;;
40256;SDS011;25977;45.462;9.210;2024-02-14T02:16:04;12.48;;;7.65;;
40256;SDS011;25977;45.462;9.210;2024-02-14T02:18:34;18.92;;;8.52;;
40256;SDS011;25977;45.462;9.210;2024-02-14T02:20:59;14.82;;;7.13;;
40256;SDS011;25977;45.462;9.210;2024-02-14T02:23:33;13.38;;;7.28;;
40256;SDS011;25977;45.462;9.210;2024-02-14T02:25:59;10.38;;;8.23;;
40256;SDS011;25977;45.462;9.210;2024-02-14T02:28:25;12.63;;;8.45;;
40256;SDS011;25977;45.462;9.210;2024-02-14T02:30:50;14.50;;;8.40;;
40256;SDS011;25977;45.462;9.210;2024-02-14T02:33:17;13.43;;;8.35;;
40256;SDS011;25977;45.462;9.210;2024-02-14T02:35:43;14.35;;;8.65;;
40256;SDS011;25977;45.462;9.210;2024-02-14T02:38:10;12.70;;;8.43;;
40256;SDS011;25977;45.462;9.210;2024-02-14T02:40:36;12.52;;;8.25;;
40256;SDS011;25977;45.462;9.210;2024-02-14T02:43:03;12.63;;;7.88;;
40256;SDS011;25977;45.462;9.210;2024-02-14T02:45:29;16.58;;;8.27;;
40256;SDS011;25977;45.462;9.210;2024-02-14T02:47:54;25.40;;;9.98;;
40256;SDS011;25977;45.462;9.210;2024-02-14T02:50:21;14.27;;;8.35;;
40256;SDS011;25977;45.462;9.210;2024-02-14T02:52:47;10.02;;;7.57;;
40256;SDS011;25977;45.462;9.210;2024-02-14T02:55:13;15.00;;;8.48;;
40256;SDS011;25977;45.462;9.210;2024-02-14T02:57:42;12.63;;;8.68;;
40256;SDS011;25977;45.462;9.210;2024-02-14T03:00:09;15.23;;;7.85;;
40256;SDS011;25977;45.462;9.210;2024-02-14T03:02:36;13.48;;;9.25;;
40256;SDS011;25977;45.462;9.210;2024-02-14T03:05:07;15.35;;;8.90;;
40256;SDS011;25977;45.462;9.210;2024-02-14T03:07:35;17.05;;;8.40;;
40256;SDS011;25977;45.462;9.210;2024-02-14T03:10:02;12.77;;;8.95;;
40256;SDS011;25977;45.462;9.210;2024-02-14T03:12:28;13.77;;;9.20;;
40256;SDS011;25977;45.462;9.210;2024-02-14T03:14:57;16.90;;;9.73;;
40256;SDS011;25977;45.462;9.210;2024-02-14T03:17:23;9.95;;;7.50;;
40256;SDS011;25977;45.462;9.210;2024-02-14T03:19:49;11.82;;;8.52;;
40256;SDS011;25977;45.462;9.210;2024-02-14T03:22:17;14.32;;;7.97;;
40256;SDS011;25977;45.462;9.210;2024-02-14T03:24:44;13.73;;;8.48;;
40256;SDS011;25977;45.462;9.210;2024-02-14T03:27:11;14.20;;;7.65;;
40256;SDS011;25977;45.462;9.210;2024-02-14T03:29:37;12.25;;;8.95;;
40256;SDS011;25977;45.462;9.210;2024-02-14T03:32:04;9.45;;;7.22;;
40256;SDS011;25977;45.462;9.210;2024-02-14T03:34:31;10.63;;;7.85;;
40256;SDS011;25977;45.462;9.210;2024-02-14T03:37:01;10.68;;;8.25;;
40256;SDS011;25977;45.462;9.210;2024-02-14T03:39:30;11.77;;;8.35;;
40256;SDS011;25977;45.462;9.210;2024-02-14T03:41:56;14.93;;;7.85;;
40256;SDS011;25977;45.462;9.210;2024-02-14T03:44:22;12.85;;;8.20;;
40256;SDS011;25977;45.462;9.210;2024-02-14T03:46:49;10.90;;;7.78;;
40256;SDS011;25977;45.462;9.210;2024-02-14T03:49:15;10.85;;;7.93;;
40256;SDS011;25977;45.462;9.210;2024-02-14T03:51:40;9.70;;;7.25;;
40256;SDS011;25977;45.462;9.210;2024-02-14T03:54:06;16.00;;;7.75;;
40256;SDS011;25977;45.462;9.210;2024-02-14T03:56:32;12.43;;;8.02;;
40256;SDS011;25977;45.462;9.210;2024-02-14T03:59:01;14.57;;;7.78;;
40256;SDS011;25977;45.462;9.210;2024-02-14T04:01:27;15.02;;;8.13;;
40256;SDS011;25977;45.462;9.210;2024-02-14T04:03:54;17.60;;;9.18;;
40256;SDS011;25977;45.462;9.210;2024-02-14T04:06:20;12.35;;;7.18;;
40256;SDS011;25977;45.462;9.210;2024-02-14T04:08:45;15.10;;;7.78;;
40256;SDS011;25977;45.462;9.210;2024-02-14T04:11:11;10.90;;;8.27;;
40256;SDS011;25977;45.462;9.210;2024-02-14T04:13:38;13.45;;;7.30;;
40256;SDS011;25977;45.462;9.210;2024-02-14T04:16:05;9.60;;;7.20;;
40256;SDS011;25977;45.462;9.210;2024-02-14T04:18:31;11.77;;;7.90;;
40256;SDS011;25977;45.462;9.210;2024-02-14T04:20:56;15.30;;;9.35;;
40256;SDS011;25977;45.462;9.210;2024-02-14T04:23:22;14.50;;;7.93;;
40256;SDS011;25977;45.462;9.210;2024-02-14T04:25:49;12.95;;;7.82;;
40256;SDS011;25977;45.462;9.210;2024-02-14T04:28:15;10.07;;;7.22;;
40256;SDS011;25977;45.462;9.210;2024-02-14T04:30:41;14.88;;;7.78;;
40256;SDS011;25977;45.462;9.210;2024-02-14T04:33:06;15.00;;;7.75;;
40256;SDS011;25977;45.462;9.210;2024-02-14T04:35:34;16.40;;;8.73;;
40256;SDS011;25977;45.462;9.210;2024-02-14T04:37:59;12.38;;;7.13;;
40256;SDS011;25977;45.462;9.210;2024-02-14T04:40:26;17.92;;;8.65;;
40256;SDS011;25977;45.462;9.210;2024-02-14T04:42:51;11.15;;;7.18;;
40256;SDS011;25977;45.462;9.210;2024-02-14T04:45:17;10.73;;;7.63;;
40256;SDS011;25977;45.462;9.210;2024-02-14T04:47:43;16.15;;;7.95;;
40256;SDS011;25977;45.462;9.210;2024-02-14T04:50:09;18.40;;;8.18;;
40256;SDS011;25977;45.462;9.210;2024-02-14T04:52:35;16.90;;;9.10;;
40256;SDS011;25977;45.462;9.210;2024-02-14T04:55:01;9.30;;;7.05;;
40256;SDS011;25977;45.462;9.210;2024-02-14T04:57:28;11.55;;;8.38;;
40256;SDS011;25977;45.462;9.210;2024-02-14T04:59:54;12.30;;;7.40;;
40256;SDS011;25977;45.462;9.210;2024-02-14T05:02:22;13.25;;;8.05;;
40256;SDS011;25977;45.462;9.210;2024-02-14T05:04:48;14.52;;;8.20;;
40256;SDS011;25977;45.462;9.210;2024-02-14T05:07:13;9.32;;;7.43;;
40256;SDS011;25977;45.462;9.210;2024-02-14T05:09:40;11.60;;;6.63;;
40256;SDS011;25977;45.462;9.210;2024-02-14T05:12:05;10.18;;;7.65;;
40256;SDS011;25977;45.462;9.210;2024-02-14T05:14:37;16.88;;;7.45;;
40256;SDS011;25977;45.462;9.210;2024-02-14T05:17:03;10.35;;;7.68;;
40256;SDS011;25977;45.462;9.210;2024-02-14T05:19:29;13.23;;;7.95;;
40256;SDS011;25977;45.462;9.210;2024-02-14T05:21:55;14.05;;;7.60;;
40256;SDS011;25977;45.462;9.210;2024-02-14T05:24:21;10.35;;;7.10;;
40256;SDS011;25977;45.462;9.210;2024-02-14T05:26:46;11.82;;;7.78;;
40256;SDS011;25977;45.462;9.210;2024-02-14T05:29:12;12.13;;;7.60;;
40256;SDS011;25977;45.462;9.210;2024-02-14T05:31:45;12.10;;;8.23;;
40256;SDS011;25977;45.462;9.210;2024-02-14T05:34:13;10.02;;;7.65;;
40256;SDS011;25977;45.462;9.210;2024-02-14T05:36:38;10.20;;;7.30;;
40256;SDS011;25977;45.462;9.210;2024-02-14T05:39:04;11.57;;;7.72;;
40256;SDS011;25977;45.462;9.210;2024-02-14T05:41:31;11.02;;;7.78;;
40256;SDS011;25977;45.462;9.210;2024-02-14T05:43:58;14.48;;;8.43;;
40256;SDS011;25977;45.462;9.210;2024-02-14T05:46:24;11.45;;;7.75;;
40256;SDS011;25977;45.462;9.210;2024-02-14T05:48:50;10.23;;;7.93;;
40256;SDS011;25977;45.462;9.210;2024-02-14T05:51:17;11.52;;;7.75;;
40256;SDS011;25977;45.462;9.210;2024-02-14T05:53:43;11.50;;;7.25;;
40256;SDS011;25977;45.462;9.210;2024-02-14T05:56:09;10.80;;;7.50;;
40256;SDS011;25977;45.462;9.210;2024-02-14T05:58:34;12.27;;;7.57;;
40256;SDS011;25977;45.462;9.210;2024-02-14T06:01:00;20.33;;;9.82;;
40256;SDS011;25977;45.462;9.210;2024-02-14T06:03:26;17.90;;;7.68;;
40256;SDS011;25977;45.462;9.210;2024-02-14T06:05:52;13.40;;;7.47;;
40256;SDS011;25977;45.462;9.210;2024-02-14T06:08:18;11.18;;;6.03;;
40256;SDS011;25977;45.462;9.210;2024-02-14T06:10:44;11.38;;;7.47;;
40256;SDS011;25977;45.462;9.210;2024-02-14T06:13:10;14.80;;;6.93;;
40256;SDS011;25977;45.462;9.210;2024-02-14T06:15:36;10.90;;;7.25;;
40256;SDS011;25977;45.462;9.210;2024-02-14T06:18:01;10.70;;;6.15;;
40256;SDS011;25977;45.462;9.210;2024-02-14T06:20:27;10.82;;;6.85;;
40256;SDS011;25977;45.462;9.210;2024-02-14T06:22:53;12.88;;;7.22;;
40256;SDS011;25977;45.462;9.210;2024-02-14T06:25:19;11.55;;;6.93;;
40256;SDS011;25977;45.462;9.210;2024-02-14T06:27:45;8.02;;;6.20;;
40256;SDS011;25977;45.462;9.210;2024-02-14T06:30:11;10.00;;;6.47;;
40256;SDS011;25977;45.462;9.210;2024-02-14T06:32:37;13.18;;;6.68;;
40256;SDS011;25977;45.462;9.210;2024-02-14T06:35:03;10.68;;;6.63;;
40256;SDS011;25977;45.462;9.210;2024-02-14T06:37:29;8.63;;;6.47;;
40256;SDS011;25977;45.462;9.210;2024-02-14T06:39:54;10.40;;;6.57;;
40256;SDS011;25977;45.462;9.210;2024-02-14T06:42:20;10.98;;;7.28;;
40256;SDS011;25977;45.462;9.210;2024-02-14T06:44:46;13.50;;;7.78;;
40256;SDS011;25977;45.462;9.210;2024-02-14T06:47:12;10.60;;;6.13;;
40256;SDS011;25977;45.462;9.210;2024-02-14T06:49:38;10.90;;;6.78;;
40256;SDS011;25977;45.462;9.210;2024-02-14T06:52:04;17.13;;;8.10;;
40256;SDS011;25977;45.462;9.210;2024-02-14T06:54:30;10.02;;;6.32;;
40256;SDS011;25977;45.462;9.210;2024-02-14T06:56:56;9.50;;;5.95;;
40256;SDS011;25977;45.462;9.210;2024-02-14T06:59:21;5.82;;;4.85;;
40256;SDS011;25977;45.462;9.210;2024-02-14T07:01:47;10.73;;;7.05;;
40256;SDS011;25977;45.462;9.210;2024-02-14T07:04:13;13.82;;;8.90;;
40256;SDS011;25977;45.462;9.210;2024-02-14T07:06:38;16.45;;;8.70;;
40256;SDS011;25977;45.462;9.210;2024-02-14T07:09:04;24.40;;;10.05;;
40256;SDS011;25977;45.462;9.210;2024-02-14T07:11:30;22.98;;;9.73;;
40256;SDS011;25977;45.462;9.210;2024-02-14T07:13:55;17.77;;;8.40;;
40256;SDS011;25977;45.462;9.210;2024-02-14T07:16:21;14.70;;;7.80;;
40256;SDS011;25977;45.462;9.210;2024-02-14T07:18:47;16.20;;;9.70;;
40256;SDS011;25977;45.462;9.210;2024-02-14T07:21:12;18.63;;;9.52;;
40256;SDS011;25977;45.462;9.210;2024-02-14T07:23:38;15.15;;;9.32;;
40256;SDS011;25977;45.462;9.210;2024-02-14T07:26:04;13.85;;;9.10;;
40256;SDS011;25977;45.462;9.210;2024-02-14T07:28:30;23.50;;;10.07;;
40256;SDS011;25977;45.462;9.210;2024-02-14T07:30:57;16.88;;;10.40;;
40256;SDS011;25977;45.462;9.210;2024-02-14T07:33:22;32.05;;;8.70;;
40256;SDS011;25977;45.462;9.210;2024-02-14T07:35:49;20.90;;;10.43;;
40256;SDS011;25977;45.462;9.210;2024-02-14T07:38:15;22.58;;;10.70;;
40256;SDS011;25977;45.462;9.210;2024-02-14T07:40:41;21.48;;;10.00;;
40256;SDS011;25977;45.462;9.210;2024-02-14T07:43:07;28.17;;;10.32;;
40256;SDS011;25977;45.462;9.210;2024-02-14T07:45:33;25.40;;;11.75;;
40256;SDS011;25977;45.462;9.210;2024-02-14T07:47:58;19.95;;;10.60;;
40256;SDS011;25977;45.462;9.210;2024-02-14T07:50:24;22.65;;;10.65;;
40256;SDS011;25977;45.462;9.210;2024-02-14T07:52:50;23.42;;;10.45;;
40256;SDS011;25977;45.462;9.210;2024-02-14T07:55:15;21.92;;;11.32;;
40256;SDS011;25977;45.462;9.210;2024-02-14T07:57:41;15.65;;;9.02;;
40256;SDS011;25977;45.462;9.210;2024-02-14T08:00:08;9.80;;;6.93;;
40256;SDS011;25977;45.462;9.210;2024-02-14T08:02:35;18.80;;;8.65;;
40256;SDS011;25977;45.462;9.210;2024-02-14T08:05:01;18.48;;;7.68;;
40256;SDS011;25977;45.462;9.210;2024-02-14T08:07:27;15.68;;;8.63;;
40256;SDS011;25977;45.462;9.210;2024-02-14T08:09:53;27.02;;;9.90;;
40256;SDS011;25977;45.462;9.210;2024-02-14T08:12:19;14.30;;;8.43;;
40256;SDS011;25977;45.462;9.210;2024-02-14T08:14:46;20.80;;;8.20;;
40256;SDS011;25977;45.462;9.210;2024-02-14T08:17:12;14.30;;;7.32;;
40256;SDS011;25977;45.462;9.210;2024-02-14T08:19:38;17.98;;;8.45;;
40256;SDS011;25977;45.462;9.210;2024-02-14T08:22:04;14.25;;;7.53;;
40256;SDS011;25977;45.462;9.210;2024-02-14T08:24:31;14.60;;;8.52;;
40256;SDS011;25977;45.462;9.210;2024-02-14T08:26:56;15.55;;;7.90;;
40256;SDS011;25977;45.462;9.210;2024-02-14T08:29:22;12.57;;;7.97;;
40256;SDS011;25977;45.462;9.210;2024-02-14T08:31:49;19.45;;;7.82;;
40256;SDS011;25977;45.462;9.210;2024-02-14T08:34:15;17.25;;;7.38;;
40256;SDS011;25977;45.462;9.210;2024-02-14T08:36:43;14.00;;;7.82;;
40256;SDS011;25977;45.462;9.210;2024-02-14T08:39:09;13.38;;;7.55;;
40256;SDS011;25977;45.462;9.210;2024-02-14T08:41:36;8.43;;;7.00;;
40256;SDS011;25977;45.462;9.210;2024-02-14T08:44:02;13.68;;;7.35;;
40256;SDS011;25977;45.462;9.210;2024-02-14T08:46:29;12.00;;;7.53;;
40256;SDS011;25977;45.462;9.210;2024-02-14T08:48:55;14.18;;;8.00;;
40256;SDS011;25977;45.462;9.210;2024-02-14T08:51:20;11.80;;;6.80;;
40256;SDS011;25977;45.462;9.210;2024-02-14T08:53:47;14.23;;;6.57;;
40256;SDS011;25977;45.462;9.210;2024-02-14T08:56:13;9.63;;;5.90;;
40256;SDS011;25977;45.462;9.210;2024-02-14T08:58:39;14.90;;;5.90;;
40256;SDS011;25977;45.462;9.210;2024-02-14T09:01:05;11.63;;;6.13;;
40256;SDS011;25977;45.462;9.210;2024-02-14T09:03:32;11.40;;;5.80;;
40256;SDS011;25977;45.462;9.210;2024-02-14T09:05:57;11.35;;;6.45;;
40256;SDS011;25977;45.462;9.210;2024-02-14T09:08:23;15.65;;;6.55;;
40256;SDS011;25977;45.462;9.210;2024-02-14T09:10:52;17.77;;;8.18;;
40256;SDS011;25977;45.462;9.210;2024-02-14T09:13:18;16.27;;;6.97;;
40256;SDS011;25977;45.462;9.210;2024-02-14T09:15:43;14.48;;;6.95;;
40256;SDS011;25977;45.462;9.210;2024-02-14T09:18:09;21.75;;;7.95;;
40256;SDS011;25977;45.462;9.210;2024-02-14T09:20:35;15.98;;;8.05;;
40256;SDS011;25977;45.462;9.210;2024-02-14T09:23:02;13.50;;;6.93;;
40256;SDS011;25977;45.462;9.210;2024-02-14T09:25:28;13.02;;;7.10;;
40256;SDS011;25977;45.462;9.210;2024-02-14T09:27:54;13.73;;;6.93;;
40256;SDS011;25977;45.462;9.210;2024-02-14T09:30:20;13.18;;;6.88;;
40256;SDS011;25977;45.462;9.210;2024-02-14T09:32:45;9.85;;;7.05;;
40256;SDS011;25977;45.462;9.210;2024-02-14T09:35:12;14.13;;;6.57;;
40256;SDS011;25977;45.462;9.210;2024-02-14T09:37:38;13.45;;;7.43;;
40256;SDS011;25977;45.462;9.210;2024-02-14T09:40:05;14.70;;;6.75;;
40256;SDS011;25977;45.462;9.210;2024-02-14T09:42:38;10.98;;;7.20;;
40256;SDS011;25977;45.462;9.210;2024-02-14T09:45:08;13.50;;;7.72;;
40256;SDS011;25977;45.462;9.210;2024-02-14T09:47:34;11.20;;;7.63;;
40256;SDS011;25977;45.462;9.210;2024-02-14T09:50:01;10.52;;;6.57;;
40256;SDS011;25977;45.462;9.210;2024-02-14T09:52:32;15.52;;;7.53;;
40256;SDS011;25977;45.462;9.210;2024-02-14T09:54:58;15.15;;;5.95;;
40256;SDS011;25977;45.462;9.210;2024-02-14T09:57:24;24.05;;;7.70;;
40256;SDS011;25977;45.462;9.210;2024-02-14T09:59:51;10.13;;;6.60;;
40256;SDS011;25977;45.462;9.210;2024-02-14T10:02:18;11.00;;;7.80;;
40256;SDS011;25977;45.462;9.210;2024-02-14T10:04:45;14.00;;;7.70;;
40256;SDS011;25977;45.462;9.210;2024-02-14T10:07:10;10.65;;;7.63;;
40256;SDS011;25977;45.462;9.210;2024-02-14T10:09:40;9.40;;;6.82;;
40256;SDS011;25977;45.462;9.210;2024-02-14T10:12:07;11.25;;;7.35;;
40256;SDS011;25977;45.462;9.210;2024-02-14T10:14:36;13.30;;;8.20;;
40256;SDS011;25977;45.462;9.210;2024-02-14T10:17:03;17.35;;;7.30;;
40256;SDS011;25977;45.462;9.210;2024-02-14T10:19:29;13.27;;;7.75;;
40256;SDS011;25977;45.462;9.210;2024-02-14T10:21:56;12.98;;;8.30;;
40256;SDS011;25977;45.462;9.210;2024-02-14T10:24:28;13.95;;;8.00;;
40256;SDS011;25977;45.462;9.210;2024-02-14T10:26:56;11.90;;;8.07;;
40256;SDS011;25977;45.462;9.210;2024-02-14T10:29:24;12.30;;;8.07;;
40256;SDS011;25977;45.462;9.210;2024-02-14T10:31:50;14.63;;;7.45;;
40256;SDS011;25977;45.462;9.210;2024-02-14T10:34:18;12.48;;;7.85;;
40256;SDS011;25977;45.462;9.210;2024-02-14T10:36:47;17.88;;;11.23;;
40256;SDS011;25977;45.462;9.210;2024-02-14T10:39:15;17.45;;;8.43;;
40256;SDS011;25977;45.462;9.210;2024-02-14T10:41:42;14.60;;;8.07;;
40256;SDS011;25977;45.462;9.210;2024-02-14T10:44:09;10.75;;;6.93;;
40256;SDS011;25977;45.462;9.210;2024-02-14T10:46:36;14.32;;;8.05;;
40256;SDS011;25977;45.462;9.210;2024-02-14T10:49:06;14.65;;;7.07;;
40256;SDS011;25977;45.462;9.210;2024-02-14T10:51:36;11.48;;;7.63;;
40256;SDS011;25977;45.462;9.210;2024-02-14T10:54:04;8.55;;;6.03;;
40256;SDS011;25977;45.462;9.210;2024-02-14T10:56:34;12.20;;;7.88;;
40256;SDS011;25977;45.462;9.210;2024-02-14T10:59:05;11.07;;;7.95;;
40256;SDS011;25977;45.462;9.210;2024-02-14T11:01:33;9.98;;;6.93;;
40256;SDS011;25977;45.462;9.210;2024-02-14T11:04:00;10.77;;;6.97;;
40256;SDS011;25977;45.462;9.210;2024-02-14T11:06:26;12.45;;;9.00;;
40256;SDS011;25977;45.462;9.210;2024-02-14T11:09:03;15.20;;;9.82;;
40256;SDS011;25977;45.462;9.210;2024-02-14T11:11:35;14.88;;;8.13;;
40256;SDS011;25977;45.462;9.210;2024-02-14T11:14:02;13.00;;;8.15;;
40256;SDS011;25977;45.462;9.210;2024-02-14T11:16:30;15.55;;;8.77;;
40256;SDS011;25977;45.462;9.210;2024-02-14T11:19:08;16.20;;;8.75;;
40256;SDS011;25977;45.462;9.210;2024-02-14T11:21:36;15.05;;;7.88;;
40256;SDS011;25977;45.462;9.210;2024-02-14T11:24:07;14.48;;;7.97;;
40256;SDS011;25977;45.462;9.210;2024-02-14T11:26:39;18.05;;;9.02;;
40256;SDS011;25977;45.462;9.210;2024-02-14T11:29:15;19.92;;;10.23;;
40256;SDS011;25977;45.462;9.210;2024-02-14T11:31:42;17.63;;;9.35;;
40256;SDS011;25977;45.462;9.210;2024-02-14T11:34:08;16.15;;;9.55;;
40256;SDS011;25977;45.462;9.210;2024-02-14T11:36:37;19.63;;;9.82;;
40256;SDS011;25977;45.462;9.210;2024-02-14T11:39:06;21.70;;;10.68;;
40256;SDS011;25977;45.462;9.210;2024-02-14T11:41:32;16.65;;;9.20;;
40256;SDS011;25977;45.462;9.210;2024-02-14T11:44:06;19.45;;;11.15;;
40256;SDS011;25977;45.462;9.210;2024-02-14T11:46:32;19.48;;;10.77;;
40256;SDS011;25977;45.462;9.210;2024-02-14T11:49:00;16.05;;;9.55;;
40256;SDS011;25977;45.462;9.210;2024-02-14T11:51:28;20.52;;;10.77;;
40256;SDS011;25977;45.462;9.210;2024-02-14T11:53:55;17.75;;;9.10;;
40256;SDS011;25977;45.462;9.210;2024-02-14T11:56:22;17.40;;;10.45;;
40256;SDS011;25977;45.462;9.210;2024-02-14T11:58:50;17.77;;;10.38;;
40256;SDS011;25977;45.462;9.210;2024-02-14T12:01:17;22.33;;;10.95;;
40256;SDS011;25977;45.462;9.210;2024-02-14T12:03:43;17.70;;;10.88;;
40256;SDS011;25977;45.462;9.210;2024-02-14T12:06:09;16.98;;;10.05;;
40256;SDS011;25977;45.462;9.210;2024-02-14T12:08:36;17.45;;;10.75;;
40256;SDS011;25977;45.462;9.210;2024-02-14T12:11:02;17.30;;;10.32;;
40256;SDS011;25977;45.462;9.210;2024-02-14T12:13:30;21.52;;;10.85;;
40256;SDS011;25977;45.462;9.210;2024-02-14T12:15:57;16.08;;;10.00;;
40256;SDS011;25977;45.462;9.210;2024-02-14T12:18:23;17.30;;;10.07;;
40256;SDS011;25977;45.462;9.210;2024-02-14T12:20:49;17.33;;;10.68;;
40256;SDS011;25977;45.462;9.210;2024-02-14T12:23:17;17.40;;;10.35;;
40256;SDS011;25977;45.462;9.210;2024-02-14T12:25:44;14.90;;;8.70;;
40256;SDS011;25977;45.462;9.210;2024-02-14T12:28:18;16.98;;;10.25;;
40256;SDS011;25977;45.462;9.210;2024-02-14T12:30:45;19.23;;;10.68;;
40256;SDS011;25977;45.462;9.210;2024-02-14T12:33:12;21.05;;;9.90;;
40256;SDS011;25977;45.462;9.210;2024-02-14T12:35:45;23.20;;;10.57;;
40256;SDS011;25977;45.462;9.210;2024-02-14T12:38:13;14.10;;;9.45;;
40256;SDS011;25977;45.462;9.210;2024-02-14T12:40:40;14.57;;;9.23;;
40256;SDS011;25977;45.462;9.210;2024-02-14T12:43:10;15.00;;;8.98;;
40256;SDS011;25977;45.462;9.210;2024-02-14T12:45:36;15.45;;;8.13;;
40256;SDS011;25977;45.462;9.210;2024-02-14T12:48:03;15.52;;;8.55;;
40256;SDS011;25977;45.462;9.210;2024-02-14T12:50:33;17.30;;;10.35;;
40256;SDS011;25977;45.462;9.210;2024-02-14T12:52:59;13.63;;;9.25;;
40256;SDS011;25977;45.462;9.210;2024-02-14T12:55:26;11.20;;;8.48;;
40256;SDS011;25977;45.462;9.210;2024-02-14T12:57:54;12.45;;;8.32;;
40256;SDS011;25977;45.462;9.210;2024-02-14T13:00:20;13.57;;;8.25;;
40256;SDS011;25977;45.462;9.210;2024-02-14T13:02:48;12.05;;;7.63;;
40256;SDS011;25977;45.462;9.210;2024-02-14T13:05:14;13.48;;;8.85;;
40256;SDS011;25977;45.462;9.210;2024-02-14T13:07:40;17.58;;;8.18;;
40256;SDS011;25977;45.462;9.210;2024-02-14T13:10:07;11.10;;;8.20;;
40256;SDS011;25977;45.462;9.210;2024-02-14T13:12:39;8.93;;;7.07;;
40256;SDS011;25977;45.462;9.210;2024-02-14T13:15:05;12.20;;;8.23;;
40256;SDS011;25977;45.462;9.210;2024-02-14T13:17:31;12.70;;;7.28;;
40256;SDS011;25977;45.462;9.210;2024-02-14T13:19:57;12.43;;;8.23;;
40256;SDS011;25977;45.462;9.210;2024-02-14T13:22:25;10.80;;;7.80;;
40256;SDS011;25977;45.462;9.210;2024-02-14T13:24:51;14.38;;;7.97;;
40256;SDS011;25977;45.462;9.210;2024-02-14T13:27:17;15.57;;;7.90;;
40256;SDS011;25977;45.462;9.210;2024-02-14T13:29:42;12.63;;;8.48;;
40256;SDS011;25977;45.462;9.210;2024-02-14T13:32:08;11.15;;;8.98;;
40256;SDS011;25977;45.462;9.210;2024-02-14T13:34:34;18.42;;;8.93;;
40256;SDS011;25977;45.462;9.210;2024-02-14T13:37:00;8.48;;;7.10;;
40256;SDS011;25977;45.462;9.210;2024-02-14T13:39:27;10.65;;;7.63;;
40256;SDS011;25977;45.462;9.210;2024-02-14T13:41:53;10.98;;;8.10;;
40256;SDS011;25977;45.462;9.210;2024-02-14T13:44:20;9.27;;;7.00;;
40256;SDS011;25977;45.462;9.210;2024-02-14T13:46:45;10.93;;;7.13;;
40256;SDS011;25977;45.462;9.210;2024-02-14T13:49:11;11.00;;;7.45;;
40256;SDS011;25977;45.462;9.210;2024-02-14T13:51:41;11.93;;;7.10;;
40256;SDS011;25977;45.462;9.210;2024-02-14T13:54:06;10.32;;;6.65;;
40256;SDS011;25977;45.462;9.210;2024-02-14T13:56:34;12.57;;;6.20;;
40256;SDS011;25977;45.462;9.210;2024-02-14T13:58:59;10.30;;;6.68;;
40256;SDS011;25977;45.462;9.210;2024-02-14T14:01:25;7.47;;;5.32;;
40256;SDS011;25977;45.462;9.210;2024-02-14T14:03:51;9.68;;;6.20;;
40256;SDS011;25977;45.462;9.210;2024-02-14T14:06:20;10.57;;;6.80;;
40256;SDS011;25977;45.462;9.210;2024-02-14T14:08:49;8.45;;;6.22;;
40256;SDS011;25977;45.462;9.210;2024-02-14T14:11:15;7.93;;;5.85;;
40256;SDS011;25977;45.462;9.210;2024-02-14T14:13:40;8.25;;;7.07;;
40256;SDS011;25977;45.462;9.210;2024-02-14T14:16:06;7.65;;;6.03;;
40256;SDS011;25977;45.462;9.210;2024-02-14T14:18:32;9.60;;;6.40;;
40256;SDS011;25977;45.462;9.210;2024-02-14T14:20:58;6.70;;;5.65;;
40256;SDS011;25977;45.462;9.210;2024-02-14T14:23:23;8.32;;;5.78;;
40256;SDS011;25977;45.462;9.210;2024-02-14T14:25:49;7.53;;;5.93;;
40256;SDS011;25977;45.462;9.210;2024-02-14T14:28:15;13.10;;;6.90;;
40256;SDS011;25977;45.462;9.210;2024-02-14T14:30:42;13.15;;;6.50;;